FIN5PJ EFHK-LPMA
Flight info
| Callsign | FIN5PJ |
|---|---|
| Flight time | 5h 37m |
| Altitude | 30000 |
| Route | NUNTO Y369 REKDO DCT KOSKA DCT ROGMI DCT VIBAR DCT KEMAX/N0451F320 DCT LANGO DCT RAXLU DCT EMMUN DCT TENLI DCT BATAK DCT NIK DCT CIV DCT MEDIL/N0448F330 DCT KOVIN DCT NIDUV DCT KIHVI UN872 ERIGA UN741 AZFIC DCT LOTEE DCT AGADO/N0452F350 DCT IBIDO DCT VERAM DCT PECKY DCT LIDRO |
| Aircraft | A321/M-SDE1E2E3FGHIJ1M1RWXYZ/LB1 |
Departure
| Time | 2026-05-06 13:44 |
|---|---|
| Airport | Helsinki Vantaa Airport (EFHK) |
Arrival
| Time | 2026-05-06 19:21 |
|---|---|
| Airport | Cristiano Ronaldo International Airport (LPMA) |
| Time | Latitude | Longitude | Altitude | Speed | Heading |
|---|---|---|---|---|---|
| 2026-05-06 12:32 | 60.32012 | 24.96846 | 167 ft | 0 kts | 193° |
| 2026-05-06 13:29 | 60.32030 | 24.96853 | 166 ft | 4 kts | 182° |
| 2026-05-06 13:29 | 60.32055 | 24.96848 | 166 ft | 4 kts | 153° |
| 2026-05-06 13:29 | 60.32071 | 24.96820 | 166 ft | 4 kts | 96° |
| 2026-05-06 13:29 | 60.32070 | 24.96797 | 166 ft | 0 kts | 47° |
| 2026-05-06 13:34 | 60.32076 | 24.96810 | 166 ft | 2 kts | 47° |
| 2026-05-06 13:35 | 60.32089 | 24.96838 | 166 ft | 3 kts | 47° |
| 2026-05-06 13:35 | 60.32109 | 24.96867 | 166 ft | 3 kts | 21° |
| 2026-05-06 13:35 | 60.32133 | 24.96860 | 166 ft | 4 kts | 338° |
| 2026-05-06 13:35 | 60.32160 | 24.96833 | 166 ft | 5 kts | 330° |
| 2026-05-06 13:36 | 60.32196 | 24.96791 | 166 ft | 7 kts | 330° |
| 2026-05-06 13:36 | 60.32247 | 24.96732 | 166 ft | 9 kts | 329° |
| 2026-05-06 13:36 | 60.32300 | 24.96669 | 167 ft | 8 kts | 329° |
| 2026-05-06 13:36 | 60.32345 | 24.96617 | 171 ft | 7 kts | 331° |
| 2026-05-06 13:37 | 60.32385 | 24.96572 | 174 ft | 7 kts | 330° |
| 2026-05-06 13:37 | 60.32434 | 24.96515 | 175 ft | 10 kts | 330° |
| 2026-05-06 13:37 | 60.32512 | 24.96423 | 174 ft | 14 kts | 329° |
| 2026-05-06 13:37 | 60.32600 | 24.96320 | 173 ft | 15 kts | 329° |
| 2026-05-06 13:38 | 60.32695 | 24.96207 | 172 ft | 16 kts | 329° |
| 2026-05-06 13:38 | 60.32792 | 24.96096 | 173 ft | 16 kts | 331° |
| 2026-05-06 13:38 | 60.32885 | 24.95989 | 175 ft | 15 kts | 330° |
| 2026-05-06 13:38 | 60.32967 | 24.95891 | 178 ft | 13 kts | 329° |
| 2026-05-06 13:39 | 60.33035 | 24.95810 | 181 ft | 10 kts | 329° |
| 2026-05-06 13:39 | 60.33098 | 24.95718 | 180 ft | 12 kts | 315° |
| 2026-05-06 13:39 | 60.33166 | 24.95592 | 181 ft | 13 kts | 317° |
| 2026-05-06 13:39 | 60.33209 | 24.95445 | 182 ft | 13 kts | 270° |
| 2026-05-06 13:40 | 60.33158 | 24.95278 | 178 ft | 16 kts | 229° |
| 2026-05-06 13:40 | 60.33115 | 24.95153 | 177 ft | 11 kts | 252° |
| 2026-05-06 13:40 | 60.33109 | 24.95009 | 178 ft | 10 kts | 272° |
| 2026-05-06 13:40 | 60.33112 | 24.94873 | 179 ft | 9 kts | 272° |
| 2026-05-06 13:41 | 60.33114 | 24.94768 | 181 ft | 4 kts | 272° |
| 2026-05-06 13:41 | 60.33115 | 24.94733 | 182 ft | 0 kts | 272° |
| 2026-05-06 13:41 | 60.33115 | 24.94731 | 182 ft | 0 kts | 272° |
| 2026-05-06 13:41 | 60.33115 | 24.94730 | 182 ft | 0 kts | 272° |
| 2026-05-06 13:42 | 60.33116 | 24.94698 | 183 ft | 4 kts | 272° |
| 2026-05-06 13:42 | 60.33118 | 24.94610 | 186 ft | 8 kts | 273° |
| 2026-05-06 13:42 | 60.33121 | 24.94510 | 189 ft | 5 kts | 281° |
| 2026-05-06 13:42 | 60.33137 | 24.94464 | 193 ft | 5 kts | 304° |
| 2026-05-06 13:43 | 60.33127 | 24.94414 | 186 ft | 4 kts | 232° |
| 2026-05-06 13:43 | 60.33119 | 24.94398 | 194 ft | 0 kts | 226° |
| 2026-05-06 13:43 | 60.33111 | 24.94382 | 198 ft | 16 kts | 226° |
| 2026-05-06 13:43 | 60.32849 | 24.93800 | 182 ft | 93 kts | 227° |
| 2026-05-06 13:44 | 60.32273 | 24.92534 | 169 ft | 152 kts | 227° |
| 2026-05-06 13:44 | 60.31463 | 24.90753 | 398 ft | 182 kts | 231° |
| 2026-05-06 13:44 | 60.30673 | 24.88723 | 1155 ft | 187 kts | 239° |
| 2026-05-06 13:44 | 60.30083 | 24.86358 | 1766 ft | 190 kts | 251° |
| 2026-05-06 13:45 | 60.29881 | 24.83627 | 1970 ft | 204 kts | 272° |
| 2026-05-06 13:45 | 60.30244 | 24.77515 | 2340 ft | 241 kts | 259° |
| 2026-05-06 13:45 | 60.29683 | 24.74315 | 2937 ft | 248 kts | 249° |
| 2026-05-06 13:46 | 60.29020 | 24.71079 | 3609 ft | 252 kts | 249° |
| 2026-05-06 13:46 | 60.28342 | 24.67780 | 4326 ft | 255 kts | 250° |
| 2026-05-06 13:46 | 60.27662 | 24.64457 | 5035 ft | 258 kts | 250° |
| 2026-05-06 13:46 | 60.26975 | 24.61093 | 5683 ft | 260 kts | 250° |
| 2026-05-06 13:47 | 60.26282 | 24.57701 | 6353 ft | 263 kts | 250° |
| 2026-05-06 13:47 | 60.25589 | 24.54305 | 7002 ft | 265 kts | 249° |
| 2026-05-06 13:47 | 60.24885 | 24.50860 | 7648 ft | 267 kts | 249° |
| 2026-05-06 13:47 | 60.24127 | 24.47427 | 8314 ft | 270 kts | 243° |
| 2026-05-06 13:48 | 60.23224 | 24.44070 | 8956 ft | 272 kts | 243° |
| 2026-05-06 13:48 | 60.22321 | 24.40714 | 9632 ft | 273 kts | 243° |
| 2026-05-06 13:48 | 60.21412 | 24.37324 | 10231 ft | 277 kts | 243° |
| 2026-05-06 13:48 | 60.20463 | 24.33787 | 10374 ft | 298 kts | 243° |
| 2026-05-06 13:49 | 60.19444 | 24.30000 | 10504 ft | 316 kts | 243° |
| 2026-05-06 13:49 | 60.18380 | 24.26074 | 10642 ft | 333 kts | 243° |
| 2026-05-06 13:49 | 60.17254 | 24.21938 | 11040 ft | 340 kts | 243° |
| 2026-05-06 13:49 | 60.16117 | 24.17765 | 11660 ft | 340 kts | 243° |
| 2026-05-06 13:50 | 60.14990 | 24.13624 | 12326 ft | 340 kts | 244° |
| 2026-05-06 13:50 | 60.13856 | 24.09456 | 12999 ft | 340 kts | 244° |
| 2026-05-06 13:50 | 60.12724 | 24.05305 | 13661 ft | 339 kts | 244° |
| 2026-05-06 13:50 | 60.11587 | 24.01142 | 14247 ft | 339 kts | 244° |
| 2026-05-06 13:51 | 60.10445 | 23.96977 | 14794 ft | 340 kts | 244° |
| 2026-05-06 13:51 | 60.09301 | 23.92814 | 15331 ft | 341 kts | 244° |
| 2026-05-06 13:51 | 60.08154 | 23.88639 | 15870 ft | 342 kts | 244° |
| 2026-05-06 13:51 | 60.07035 | 23.84474 | 16399 ft | 343 kts | 244° |
| 2026-05-06 13:52 | 60.05921 | 23.80228 | 16933 ft | 344 kts | 245° |
| 2026-05-06 13:52 | 60.04814 | 23.75957 | 17464 ft | 345 kts | 244° |
| 2026-05-06 13:52 | 60.03705 | 23.71665 | 17976 ft | 347 kts | 244° |
| 2026-05-06 13:52 | 60.02601 | 23.67422 | 18472 ft | 348 kts | 244° |
| 2026-05-06 13:53 | 60.01477 | 23.63129 | 18922 ft | 349 kts | 244° |
| 2026-05-06 13:53 | 60.00339 | 23.58810 | 19373 ft | 350 kts | 244° |
| 2026-05-06 13:53 | 59.99196 | 23.54503 | 19815 ft | 351 kts | 244° |
| 2026-05-06 13:53 | 59.98053 | 23.50202 | 20259 ft | 352 kts | 244° |
| 2026-05-06 13:54 | 59.96902 | 23.45871 | 20673 ft | 353 kts | 244° |
| 2026-05-06 13:54 | 59.95742 | 23.41506 | 21091 ft | 354 kts | 244° |
| 2026-05-06 13:54 | 59.94582 | 23.37151 | 21503 ft | 355 kts | 244° |
| 2026-05-06 13:54 | 59.93419 | 23.32798 | 21906 ft | 356 kts | 244° |
| 2026-05-06 13:55 | 59.92265 | 23.28483 | 22296 ft | 357 kts | 244° |
| 2026-05-06 13:55 | 59.91078 | 23.24050 | 22678 ft | 358 kts | 244° |
| 2026-05-06 13:55 | 59.89918 | 23.19722 | 23055 ft | 359 kts | 244° |
| 2026-05-06 13:55 | 59.88733 | 23.15305 | 23432 ft | 360 kts | 244° |
| 2026-05-06 13:56 | 59.87542 | 23.10887 | 23775 ft | 362 kts | 244° |
| 2026-05-06 13:56 | 59.86350 | 23.06478 | 24066 ft | 363 kts | 244° |
| 2026-05-06 13:56 | 59.85163 | 23.02099 | 24369 ft | 364 kts | 243° |
| 2026-05-06 13:56 | 59.83956 | 22.97656 | 24666 ft | 365 kts | 243° |
| 2026-05-06 13:57 | 59.82748 | 22.93206 | 24973 ft | 366 kts | 243° |
| 2026-05-06 13:57 | 59.81533 | 22.88746 | 25265 ft | 367 kts | 243° |
| 2026-05-06 13:57 | 59.80311 | 22.84274 | 25550 ft | 368 kts | 243° |
| 2026-05-06 13:57 | 59.79088 | 22.79812 | 25821 ft | 369 kts | 242° |
| 2026-05-06 13:58 | 59.77852 | 22.75305 | 26104 ft | 370 kts | 242° |
| 2026-05-06 13:58 | 59.76625 | 22.70826 | 26372 ft | 371 kts | 242° |
| 2026-05-06 13:58 | 59.75386 | 22.66311 | 26632 ft | 372 kts | 242° |
| 2026-05-06 13:58 | 59.74140 | 22.61793 | 26881 ft | 373 kts | 242° |
| 2026-05-06 13:59 | 59.72904 | 22.57327 | 27145 ft | 375 kts | 242° |
| 2026-05-06 13:59 | 59.71647 | 22.52784 | 27403 ft | 376 kts | 242° |
| 2026-05-06 13:59 | 59.70391 | 22.48242 | 27659 ft | 377 kts | 241° |
| 2026-05-06 13:59 | 59.69126 | 22.43674 | 27916 ft | 378 kts | 241° |
| 2026-05-06 14:00 | 59.67857 | 22.39112 | 28169 ft | 379 kts | 241° |
| 2026-05-06 14:00 | 59.66580 | 22.34541 | 28523 ft | 378 kts | 241° |
| 2026-05-06 14:00 | 59.65312 | 22.30009 | 28908 ft | 376 kts | 240° |
| 2026-05-06 14:00 | 59.64470 | 22.27005 | 29143 ft | 375 kts | 240° |
| 2026-05-06 14:01 | 59.63212 | 22.22516 | 29531 ft | 373 kts | 240° |
| 2026-05-06 14:01 | 59.61545 | 22.16574 | 30006 ft | 372 kts | 240° |
| 2026-05-06 14:01 | 59.60692 | 22.13545 | 30224 ft | 371 kts | 240° |
| 2026-05-06 14:01 | 59.59456 | 22.09160 | 30505 ft | 370 kts | 240° |
| 2026-05-06 14:02 | 59.58205 | 22.04729 | 30775 ft | 369 kts | 240° |
| 2026-05-06 14:02 | 59.56951 | 22.00301 | 31042 ft | 368 kts | 240° |
| 2026-05-06 14:02 | 59.55703 | 21.95893 | 31309 ft | 368 kts | 240° |
| 2026-05-06 14:02 | 59.54456 | 21.91498 | 31572 ft | 367 kts | 240° |
| 2026-05-06 14:03 | 59.53204 | 21.87102 | 31832 ft | 366 kts | 240° |
| 2026-05-06 14:03 | 59.51969 | 21.82789 | 31997 ft | 366 kts | 239° |
| 2026-05-06 14:03 | 59.49459 | 21.74047 | 32040 ft | 366 kts | 239° |
| 2026-05-06 14:04 | 59.46943 | 21.65297 | 32037 ft | 366 kts | 239° |
| 2026-05-06 14:04 | 59.44448 | 21.56647 | 32040 ft | 366 kts | 239° |
| 2026-05-06 14:05 | 59.41935 | 21.47907 | 32041 ft | 367 kts | 239° |
| 2026-05-06 14:05 | 59.39411 | 21.39185 | 32042 ft | 367 kts | 239° |
| 2026-05-06 14:06 | 59.36871 | 21.30469 | 32033 ft | 368 kts | 239° |
| 2026-05-06 14:06 | 59.34323 | 21.21751 | 32035 ft | 368 kts | 239° |
| 2026-05-06 14:07 | 59.31780 | 21.13078 | 32037 ft | 369 kts | 239° |
| 2026-05-06 14:07 | 59.29207 | 21.04372 | 32035 ft | 369 kts | 238° |
| 2026-05-06 14:08 | 59.26626 | 20.95659 | 32037 ft | 370 kts | 238° |
| 2026-05-06 14:08 | 59.24059 | 20.86983 | 32035 ft | 370 kts | 238° |
| 2026-05-06 14:09 | 59.21470 | 20.78277 | 32030 ft | 371 kts | 238° |
| 2026-05-06 14:09 | 59.18858 | 20.69559 | 32028 ft | 372 kts | 238° |
| 2026-05-06 14:10 | 59.16109 | 20.61086 | 32032 ft | 372 kts | 235° |
| 2026-05-06 14:10 | 59.13150 | 20.52799 | 32030 ft | 372 kts | 234° |
| 2026-05-06 14:11 | 59.10179 | 20.44537 | 32027 ft | 373 kts | 234° |
| 2026-05-06 14:11 | 59.07230 | 20.36226 | 32028 ft | 373 kts | 234° |
| 2026-05-06 14:12 | 59.04302 | 20.27939 | 32032 ft | 374 kts | 234° |
| 2026-05-06 14:12 | 59.01348 | 20.19628 | 32021 ft | 374 kts | 234° |
| 2026-05-06 14:13 | 58.98374 | 20.11303 | 32019 ft | 375 kts | 234° |
| 2026-05-06 14:13 | 58.95412 | 20.03038 | 32019 ft | 375 kts | 234° |
| 2026-05-06 14:14 | 58.92425 | 19.94734 | 32019 ft | 375 kts | 234° |
| 2026-05-06 14:14 | 58.89424 | 19.86421 | 32015 ft | 376 kts | 234° |
| 2026-05-06 14:15 | 58.86431 | 19.78166 | 32013 ft | 377 kts | 234° |
| 2026-05-06 14:15 | 58.83422 | 19.69859 | 32012 ft | 377 kts | 234° |
| 2026-05-06 14:16 | 58.80386 | 19.61560 | 32013 ft | 378 kts | 233° |
| 2026-05-06 14:16 | 58.77362 | 19.53300 | 32012 ft | 379 kts | 233° |
| 2026-05-06 14:17 | 58.74318 | 19.44984 | 32013 ft | 380 kts | 233° |
| 2026-05-06 14:17 | 58.71254 | 19.36652 | 32012 ft | 380 kts | 233° |
| 2026-05-06 14:18 | 58.68179 | 19.28348 | 32013 ft | 381 kts | 233° |
| 2026-05-06 14:18 | 58.65107 | 19.20098 | 32013 ft | 381 kts | 233° |
| 2026-05-06 14:19 | 58.62028 | 19.11838 | 32008 ft | 382 kts | 233° |
| 2026-05-06 14:19 | 58.58929 | 19.03532 | 32010 ft | 383 kts | 233° |
| 2026-05-06 14:20 | 58.55815 | 18.95225 | 32010 ft | 383 kts | 232° |
| 2026-05-06 14:20 | 58.52707 | 18.86972 | 32013 ft | 383 kts | 232° |
| 2026-05-06 14:21 | 58.49568 | 18.78676 | 32013 ft | 384 kts | 232° |
| 2026-05-06 14:21 | 58.46432 | 18.70388 | 32011 ft | 385 kts | 232° |
| 2026-05-06 14:22 | 58.43290 | 18.62100 | 32012 ft | 385 kts | 232° |
| 2026-05-06 14:22 | 58.40147 | 18.53868 | 32011 ft | 386 kts | 232° |
| 2026-05-06 14:23 | 58.36974 | 18.45590 | 32008 ft | 386 kts | 232° |
| 2026-05-06 14:23 | 58.33823 | 18.37366 | 32006 ft | 387 kts | 232° |
| 2026-05-06 14:24 | 58.30639 | 18.29105 | 31999 ft | 387 kts | 232° |
| 2026-05-06 14:24 | 58.27435 | 18.20841 | 31998 ft | 388 kts | 232° |
| 2026-05-06 14:25 | 58.24219 | 18.12564 | 31997 ft | 389 kts | 232° |
| 2026-05-06 14:25 | 58.20996 | 18.04301 | 31998 ft | 390 kts | 232° |
| 2026-05-06 14:26 | 58.17779 | 17.96006 | 31999 ft | 391 kts | 232° |
| 2026-05-06 14:26 | 58.14685 | 17.87614 | 31998 ft | 391 kts | 233° |
| 2026-05-06 14:27 | 58.11585 | 17.79131 | 32003 ft | 392 kts | 233° |
| 2026-05-06 14:27 | 58.08445 | 17.70658 | 32003 ft | 392 kts | 233° |
| 2026-05-06 14:28 | 58.05309 | 17.62296 | 32002 ft | 393 kts | 232° |
| 2026-05-06 14:28 | 58.02127 | 17.53889 | 32001 ft | 393 kts | 232° |
| 2026-05-06 14:29 | 57.98949 | 17.45463 | 31999 ft | 394 kts | 232° |
| 2026-05-06 14:29 | 57.95778 | 17.37101 | 31997 ft | 394 kts | 232° |
| 2026-05-06 14:30 | 57.92585 | 17.28701 | 31992 ft | 395 kts | 232° |
| 2026-05-06 14:30 | 57.89374 | 17.20286 | 31989 ft | 396 kts | 232° |
| 2026-05-06 14:31 | 57.86146 | 17.11862 | 31991 ft | 396 kts | 232° |
| 2026-05-06 14:31 | 57.82939 | 17.03516 | 31992 ft | 397 kts | 232° |
| 2026-05-06 14:32 | 57.79692 | 16.95094 | 31990 ft | 398 kts | 232° |
| 2026-05-06 14:32 | 57.76423 | 16.86664 | 31996 ft | 399 kts | 232° |
| 2026-05-06 14:33 | 57.73180 | 16.78315 | 31999 ft | 399 kts | 232° |
| 2026-05-06 14:33 | 57.69906 | 16.69890 | 31995 ft | 400 kts | 232° |
| 2026-05-06 14:34 | 57.66619 | 16.61460 | 31992 ft | 400 kts | 231° |
| 2026-05-06 14:34 | 57.63345 | 16.53106 | 31987 ft | 401 kts | 231° |
| 2026-05-06 14:35 | 57.60037 | 16.44710 | 31985 ft | 401 kts | 231° |
| 2026-05-06 14:35 | 57.56662 | 16.36391 | 31978 ft | 401 kts | 229° |
| 2026-05-06 14:36 | 57.53032 | 16.28478 | 31973 ft | 402 kts | 226° |
| 2026-05-06 14:36 | 57.49326 | 16.20761 | 31967 ft | 403 kts | 226° |
| 2026-05-06 14:37 | 57.45596 | 16.12930 | 31964 ft | 404 kts | 227° |
| 2026-05-06 14:37 | 57.41917 | 16.05107 | 31967 ft | 405 kts | 227° |
| 2026-05-06 14:38 | 57.38200 | 15.97207 | 31959 ft | 405 kts | 227° |
| 2026-05-06 14:38 | 57.34503 | 15.89392 | 31952 ft | 405 kts | 227° |
| 2026-05-06 14:39 | 57.30781 | 15.81547 | 31948 ft | 406 kts | 227° |
| 2026-05-06 14:39 | 57.27040 | 15.73668 | 31947 ft | 406 kts | 227° |
| 2026-05-06 14:40 | 57.23313 | 15.65865 | 31948 ft | 407 kts | 227° |
| 2026-05-06 14:40 | 57.19553 | 15.58030 | 31947 ft | 408 kts | 227° |
| 2026-05-06 14:41 | 57.15779 | 15.50200 | 31944 ft | 408 kts | 226° |
| 2026-05-06 14:41 | 57.12009 | 15.42407 | 31941 ft | 409 kts | 226° |
| 2026-05-06 14:42 | 57.08216 | 15.34572 | 31942 ft | 410 kts | 226° |
| 2026-05-06 14:42 | 57.04437 | 15.26794 | 31937 ft | 410 kts | 226° |
| 2026-05-06 14:43 | 57.00625 | 15.18965 | 31938 ft | 411 kts | 226° |
| 2026-05-06 14:43 | 56.96807 | 15.11150 | 31935 ft | 411 kts | 226° |
| 2026-05-06 14:44 | 56.92964 | 15.03320 | 31936 ft | 412 kts | 226° |
| 2026-05-06 14:45 | 56.87229 | 14.91702 | 31939 ft | 412 kts | 226° |
| 2026-05-06 14:45 | 56.83374 | 14.83897 | 31939 ft | 412 kts | 226° |
| 2026-05-06 14:46 | 56.79521 | 14.76134 | 31941 ft | 413 kts | 226° |
| 2026-05-06 14:46 | 56.75662 | 14.68386 | 31939 ft | 413 kts | 226° |
| 2026-05-06 14:47 | 56.71807 | 14.60697 | 31936 ft | 413 kts | 226° |
| 2026-05-06 14:47 | 56.67924 | 14.52965 | 31934 ft | 413 kts | 226° |
| 2026-05-06 14:48 | 56.64066 | 14.45284 | 31933 ft | 413 kts | 226° |
| 2026-05-06 14:48 | 56.60830 | 14.38869 | 31931 ft | 413 kts | 226° |
| 2026-05-06 14:49 | 56.56961 | 14.31209 | 31930 ft | 413 kts | 226° |
| 2026-05-06 14:49 | 56.53053 | 14.23518 | 31930 ft | 414 kts | 226° |
| 2026-05-06 14:50 | 56.49142 | 14.15836 | 31929 ft | 414 kts | 226° |
| 2026-05-06 14:50 | 56.45220 | 14.08172 | 31931 ft | 415 kts | 226° |
| 2026-05-06 14:51 | 56.41324 | 14.00574 | 31931 ft | 415 kts | 226° |
| 2026-05-06 14:51 | 56.37380 | 13.92921 | 31932 ft | 415 kts | 226° |
| 2026-05-06 14:52 | 56.33434 | 13.85267 | 31935 ft | 416 kts | 226° |
| 2026-05-06 14:52 | 56.29515 | 13.77705 | 31941 ft | 416 kts | 226° |
| 2026-05-06 14:53 | 56.25557 | 13.70094 | 31945 ft | 416 kts | 226° |
| 2026-05-06 14:53 | 56.21610 | 13.62522 | 31948 ft | 416 kts | 226° |
| 2026-05-06 14:54 | 56.17651 | 13.54932 | 31947 ft | 416 kts | 226° |
| 2026-05-06 14:54 | 56.13671 | 13.47351 | 31951 ft | 416 kts | 225° |
| 2026-05-06 14:55 | 56.10005 | 13.39287 | 31956 ft | 417 kts | 231° |
| 2026-05-06 14:55 | 56.06452 | 13.31059 | 31954 ft | 417 kts | 231° |
| 2026-05-06 14:56 | 56.02884 | 13.22850 | 31952 ft | 417 kts | 231° |
| 2026-05-06 14:56 | 55.99335 | 13.14713 | 31952 ft | 417 kts | 231° |
| 2026-05-06 14:57 | 55.95747 | 13.06501 | 31953 ft | 418 kts | 231° |
| 2026-05-06 14:57 | 55.92166 | 12.98325 | 31957 ft | 418 kts | 231° |
| 2026-05-06 14:58 | 55.88598 | 12.90215 | 31959 ft | 418 kts | 230° |
| 2026-05-06 14:58 | 55.85001 | 12.82052 | 31967 ft | 418 kts | 231° |
| 2026-05-06 14:59 | 55.81407 | 12.73914 | 31973 ft | 417 kts | 230° |
| 2026-05-06 14:59 | 55.77826 | 12.65856 | 31980 ft | 417 kts | 230° |
| 2026-05-06 15:00 | 55.74206 | 12.57753 | 31988 ft | 417 kts | 230° |
| 2026-05-06 15:00 | 55.70614 | 12.49742 | 31985 ft | 417 kts | 230° |
| 2026-05-06 15:01 | 55.67004 | 12.41699 | 31981 ft | 416 kts | 230° |
| 2026-05-06 15:01 | 55.63381 | 12.33651 | 31958 ft | 417 kts | 230° |
| 2026-05-06 15:02 | 55.59785 | 12.25681 | 31955 ft | 417 kts | 230° |
| 2026-05-06 15:02 | 55.56150 | 12.17663 | 31953 ft | 417 kts | 230° |
| 2026-05-06 15:03 | 55.52513 | 12.09657 | 31952 ft | 417 kts | 230° |
| 2026-05-06 15:03 | 55.48891 | 12.01727 | 31953 ft | 417 kts | 230° |
| 2026-05-06 15:04 | 55.45230 | 11.93739 | 31949 ft | 417 kts | 230° |
| 2026-05-06 15:04 | 55.41577 | 11.85773 | 31951 ft | 418 kts | 230° |
| 2026-05-06 15:05 | 55.37941 | 11.77876 | 31949 ft | 418 kts | 230° |
| 2026-05-06 15:05 | 55.34263 | 11.69918 | 31944 ft | 418 kts | 229° |
| 2026-05-06 15:06 | 55.30606 | 11.62029 | 31936 ft | 418 kts | 229° |
| 2026-05-06 15:06 | 55.26931 | 11.54126 | 31933 ft | 418 kts | 229° |
| 2026-05-06 15:07 | 55.23238 | 11.46219 | 31932 ft | 418 kts | 229° |
| 2026-05-06 15:07 | 55.19563 | 11.38384 | 31934 ft | 419 kts | 229° |
| 2026-05-06 15:08 | 55.15862 | 11.30489 | 31928 ft | 419 kts | 229° |
| 2026-05-06 15:08 | 55.12150 | 11.22626 | 31932 ft | 419 kts | 229° |
| 2026-05-06 15:09 | 55.08455 | 11.14811 | 31929 ft | 419 kts | 229° |
| 2026-05-06 15:09 | 55.04738 | 11.06961 | 31926 ft | 419 kts | 229° |
| 2026-05-06 15:10 | 55.01030 | 10.99171 | 31920 ft | 419 kts | 229° |
| 2026-05-06 15:10 | 54.97298 | 10.91364 | 31919 ft | 419 kts | 229° |
| 2026-05-06 15:11 | 54.93673 | 10.83384 | 31921 ft | 421 kts | 234° |
| 2026-05-06 15:11 | 54.90387 | 10.74943 | 31918 ft | 421 kts | 234° |
| 2026-05-06 15:12 | 54.87102 | 10.66576 | 31919 ft | 422 kts | 234° |
| 2026-05-06 15:12 | 54.83781 | 10.58178 | 31924 ft | 422 kts | 234° |
| 2026-05-06 15:13 | 54.80455 | 10.49761 | 31925 ft | 422 kts | 234° |
| 2026-05-06 15:13 | 54.77136 | 10.41372 | 31922 ft | 422 kts | 234° |
| 2026-05-06 15:14 | 54.73797 | 10.32965 | 31922 ft | 423 kts | 234° |
| 2026-05-06 15:14 | 54.70199 | 10.25046 | 31919 ft | 421 kts | 223° |
| 2026-05-06 15:15 | 54.65990 | 10.17968 | 31917 ft | 421 kts | 223° |
| 2026-05-06 15:15 | 54.61828 | 10.10925 | 31913 ft | 421 kts | 223° |
| 2026-05-06 15:16 | 54.57613 | 10.03809 | 31910 ft | 422 kts | 223° |
| 2026-05-06 15:16 | 54.53428 | 9.96771 | 31914 ft | 422 kts | 223° |
| 2026-05-06 15:17 | 54.49206 | 9.89718 | 31912 ft | 423 kts | 223° |
| 2026-05-06 15:17 | 54.44996 | 9.82714 | 31908 ft | 423 kts | 223° |
| 2026-05-06 15:18 | 54.40758 | 9.75669 | 31911 ft | 423 kts | 223° |
| 2026-05-06 15:18 | 54.36520 | 9.68643 | 31890 ft | 423 kts | 223° |
| 2026-05-06 15:19 | 54.32294 | 9.61676 | 31886 ft | 424 kts | 223° |
| 2026-05-06 15:19 | 54.28033 | 9.54648 | 31888 ft | 424 kts | 223° |
| 2026-05-06 15:20 | 54.23791 | 9.47668 | 31891 ft | 425 kts | 223° |
| 2026-05-06 15:20 | 54.19520 | 9.40670 | 31895 ft | 425 kts | 223° |
| 2026-05-06 15:21 | 54.15248 | 9.33705 | 31890 ft | 425 kts | 223° |
| 2026-05-06 15:21 | 54.10959 | 9.26736 | 31891 ft | 425 kts | 223° |
| 2026-05-06 15:22 | 54.06661 | 9.19756 | 31886 ft | 426 kts | 223° |
| 2026-05-06 15:22 | 54.02397 | 9.12842 | 31887 ft | 426 kts | 223° |
| 2026-05-06 15:23 | 53.98085 | 9.05900 | 31888 ft | 427 kts | 223° |
| 2026-05-06 15:23 | 53.93762 | 8.98946 | 31885 ft | 428 kts | 223° |
| 2026-05-06 15:24 | 53.89429 | 8.91986 | 31891 ft | 428 kts | 223° |
| 2026-05-06 15:24 | 53.85112 | 8.85083 | 31891 ft | 428 kts | 223° |
| 2026-05-06 15:25 | 53.80767 | 8.78161 | 31892 ft | 429 kts | 223° |
| 2026-05-06 15:25 | 53.76414 | 8.71239 | 31891 ft | 429 kts | 223° |
| 2026-05-06 15:26 | 53.72077 | 8.64359 | 31891 ft | 429 kts | 223° |
| 2026-05-06 15:26 | 53.67718 | 8.57482 | 31888 ft | 429 kts | 223° |
| 2026-05-06 15:27 | 53.63341 | 8.50589 | 31893 ft | 430 kts | 223° |
| 2026-05-06 15:27 | 53.58965 | 8.43708 | 31889 ft | 430 kts | 223° |
| 2026-05-06 15:28 | 53.54613 | 8.36884 | 31886 ft | 430 kts | 223° |
| 2026-05-06 15:28 | 53.50215 | 8.30023 | 31887 ft | 430 kts | 222° |
| 2026-05-06 15:29 | 53.45870 | 8.23281 | 31894 ft | 431 kts | 222° |
| 2026-05-06 15:29 | 53.41475 | 8.16450 | 31895 ft | 432 kts | 222° |
| 2026-05-06 15:30 | 53.37067 | 8.09608 | 31898 ft | 432 kts | 223° |
| 2026-05-06 15:30 | 53.32635 | 8.02767 | 31895 ft | 432 kts | 222° |
| 2026-05-06 15:31 | 53.28194 | 7.95949 | 31902 ft | 433 kts | 222° |
| 2026-05-06 15:31 | 53.23780 | 7.89186 | 31910 ft | 434 kts | 222° |
| 2026-05-06 15:32 | 53.17114 | 7.78999 | 31895 ft | 433 kts | 222° |
| 2026-05-06 15:32 | 53.12668 | 7.72235 | 31894 ft | 433 kts | 222° |
| 2026-05-06 15:33 | 53.08208 | 7.65465 | 31894 ft | 433 kts | 222° |
| 2026-05-06 15:33 | 53.04504 | 7.59861 | 31896 ft | 433 kts | 222° |
| 2026-05-06 15:34 | 53.00032 | 7.53115 | 31903 ft | 434 kts | 222° |
| 2026-05-06 15:34 | 52.95548 | 7.46359 | 31911 ft | 434 kts | 222° |
| 2026-05-06 15:35 | 52.91074 | 7.39633 | 31896 ft | 433 kts | 221° |
| 2026-05-06 15:35 | 52.86629 | 7.32977 | 31891 ft | 433 kts | 221° |
| 2026-05-06 15:36 | 52.82158 | 7.26288 | 31895 ft | 433 kts | 221° |
| 2026-05-06 15:36 | 52.77689 | 7.19653 | 31898 ft | 433 kts | 221° |
| 2026-05-06 15:37 | 52.73192 | 7.13000 | 31902 ft | 433 kts | 221° |
| 2026-05-06 15:37 | 52.68697 | 7.06343 | 31904 ft | 434 kts | 221° |
| 2026-05-06 15:38 | 52.64510 | 6.99263 | 31903 ft | 434 kts | 228° |
| 2026-05-06 15:38 | 52.60533 | 6.91756 | 31926 ft | 434 kts | 228° |
| 2026-05-06 15:39 | 52.56569 | 6.84304 | 31900 ft | 434 kts | 228° |
| 2026-05-06 15:39 | 52.52593 | 6.76835 | 31897 ft | 433 kts | 227° |
| 2026-05-06 15:40 | 52.48607 | 6.69379 | 31897 ft | 433 kts | 227° |
| 2026-05-06 15:40 | 52.44622 | 6.61942 | 31901 ft | 433 kts | 227° |
| 2026-05-06 15:41 | 52.40649 | 6.54555 | 31899 ft | 434 kts | 227° |
| 2026-05-06 15:41 | 52.36644 | 6.47147 | 31900 ft | 434 kts | 227° |
| 2026-05-06 15:42 | 52.32638 | 6.39756 | 31899 ft | 434 kts | 227° |
| 2026-05-06 15:42 | 52.28640 | 6.32381 | 31919 ft | 434 kts | 227° |
| 2026-05-06 15:43 | 52.24653 | 6.24982 | 31899 ft | 434 kts | 231° |
| 2026-05-06 15:43 | 52.21065 | 6.17040 | 31903 ft | 434 kts | 233° |
| 2026-05-06 15:44 | 52.17496 | 6.09135 | 31901 ft | 434 kts | 233° |
| 2026-05-06 15:44 | 52.13906 | 6.01197 | 31914 ft | 434 kts | 233° |
| 2026-05-06 15:45 | 52.10339 | 5.93333 | 31903 ft | 434 kts | 233° |
| 2026-05-06 15:45 | 52.06742 | 5.85445 | 31902 ft | 434 kts | 233° |
| 2026-05-06 15:46 | 52.03141 | 5.77563 | 31900 ft | 434 kts | 233° |
| 2026-05-06 15:46 | 51.99543 | 5.69720 | 31898 ft | 433 kts | 233° |
| 2026-05-06 15:47 | 51.95934 | 5.61872 | 31895 ft | 433 kts | 233° |
| 2026-05-06 15:47 | 51.92339 | 5.54062 | 31892 ft | 434 kts | 233° |
| 2026-05-06 15:48 | 51.88712 | 5.46216 | 31895 ft | 434 kts | 232° |
| 2026-05-06 15:48 | 51.85104 | 5.38431 | 31899 ft | 434 kts | 232° |
| 2026-05-06 15:49 | 51.81465 | 5.30615 | 31899 ft | 434 kts | 232° |
| 2026-05-06 15:49 | 51.77824 | 5.22808 | 31906 ft | 435 kts | 232° |
| 2026-05-06 15:50 | 51.74169 | 5.15003 | 31913 ft | 435 kts | 232° |
| 2026-05-06 15:50 | 51.70532 | 5.07276 | 31921 ft | 435 kts | 232° |
| 2026-05-06 15:51 | 51.66877 | 4.99518 | 31931 ft | 434 kts | 232° |
| 2026-05-06 15:51 | 51.63216 | 4.91764 | 31927 ft | 434 kts | 232° |
| 2026-05-06 15:52 | 51.59570 | 4.84061 | 31945 ft | 434 kts | 232° |
| 2026-05-06 15:52 | 51.55675 | 4.76690 | 31928 ft | 433 kts | 223° |
| 2026-05-06 15:53 | 51.51268 | 4.70068 | 31917 ft | 433 kts | 223° |
| 2026-05-06 15:53 | 51.46866 | 4.63471 | 31916 ft | 433 kts | 223° |
| 2026-05-06 15:54 | 51.42484 | 4.56903 | 31898 ft | 433 kts | 223° |
| 2026-05-06 15:54 | 51.38068 | 4.50304 | 31896 ft | 433 kts | 223° |
| 2026-05-06 15:55 | 51.33673 | 4.43770 | 31894 ft | 433 kts | 223° |
| 2026-05-06 15:55 | 51.29241 | 4.37204 | 31897 ft | 434 kts | 223° |
| 2026-05-06 15:56 | 51.24808 | 4.30645 | 31905 ft | 434 kts | 223° |
| 2026-05-06 15:56 | 51.22613 | 4.27402 | 31895 ft | 434 kts | 223° |
| 2026-05-06 15:57 | 51.18258 | 4.21073 | 31888 ft | 434 kts | 218° |
| 2026-05-06 15:57 | 51.13038 | 4.16292 | 31893 ft | 433 kts | 201° |
| 2026-05-06 15:58 | 51.07426 | 4.12943 | 31893 ft | 434 kts | 201° |
| 2026-05-06 15:58 | 51.01774 | 4.09560 | 31900 ft | 434 kts | 201° |
| 2026-05-06 15:59 | 50.96111 | 4.06177 | 31896 ft | 434 kts | 201° |
| 2026-05-06 15:59 | 50.90447 | 4.02790 | 31900 ft | 434 kts | 201° |
| 2026-05-06 16:00 | 50.84833 | 3.99440 | 31911 ft | 434 kts | 201° |
| 2026-05-06 16:00 | 50.79168 | 3.96083 | 31909 ft | 434 kts | 201° |
| 2026-05-06 16:01 | 50.73498 | 3.92731 | 31897 ft | 434 kts | 201° |
| 2026-05-06 16:01 | 50.67860 | 3.89405 | 31897 ft | 435 kts | 201° |
| 2026-05-06 16:02 | 50.62176 | 3.86073 | 31888 ft | 435 kts | 200° |
| 2026-05-06 16:02 | 50.56493 | 3.82718 | 31892 ft | 437 kts | 201° |
| 2026-05-06 16:03 | 50.53674 | 3.80911 | 32026 ft | 438 kts | 203° |
| 2026-05-06 16:03 | 50.50872 | 3.78998 | 32301 ft | 439 kts | 204° |
| 2026-05-06 16:03 | 50.48084 | 3.77036 | 32574 ft | 438 kts | 204° |
| 2026-05-06 16:03 | 50.45298 | 3.75063 | 32829 ft | 438 kts | 204° |
| 2026-05-06 16:04 | 50.39758 | 3.71220 | 32902 ft | 438 kts | 204° |
| 2026-05-06 16:04 | 50.34151 | 3.67421 | 32904 ft | 438 kts | 203° |
| 2026-05-06 16:05 | 50.28574 | 3.63669 | 32906 ft | 437 kts | 203° |
| 2026-05-06 16:05 | 50.22975 | 3.59915 | 32905 ft | 437 kts | 203° |
| 2026-05-06 16:06 | 50.17412 | 3.56178 | 32901 ft | 437 kts | 203° |
| 2026-05-06 16:06 | 50.11808 | 3.52394 | 32908 ft | 438 kts | 203° |
| 2026-05-06 16:07 | 50.06224 | 3.48643 | 32910 ft | 438 kts | 202° |
| 2026-05-06 16:07 | 50.00623 | 3.44912 | 32915 ft | 438 kts | 202° |
| 2026-05-06 16:08 | 49.94999 | 3.41183 | 32913 ft | 438 kts | 202° |
| 2026-05-06 16:08 | 49.89430 | 3.37477 | 32911 ft | 438 kts | 202° |
| 2026-05-06 16:09 | 49.83808 | 3.33744 | 32914 ft | 439 kts | 202° |
| 2026-05-06 16:09 | 49.78190 | 3.30032 | 32914 ft | 439 kts | 202° |
| 2026-05-06 16:10 | 49.72581 | 3.26338 | 32913 ft | 439 kts | 202° |
| 2026-05-06 16:10 | 49.66954 | 3.22633 | 32916 ft | 439 kts | 202° |
| 2026-05-06 16:11 | 49.61312 | 3.18928 | 32915 ft | 440 kts | 202° |
| 2026-05-06 16:11 | 49.55704 | 3.15269 | 32915 ft | 440 kts | 202° |
| 2026-05-06 16:12 | 49.50306 | 3.10799 | 32912 ft | 442 kts | 217° |
| 2026-05-06 16:12 | 49.46152 | 3.03938 | 32914 ft | 444 kts | 236° |
| 2026-05-06 16:13 | 49.43061 | 2.95675 | 32908 ft | 445 kts | 239° |
| 2026-05-06 16:13 | 49.39970 | 2.87405 | 32913 ft | 446 kts | 239° |
| 2026-05-06 16:14 | 49.36874 | 2.79139 | 32915 ft | 447 kts | 239° |
| 2026-05-06 16:14 | 49.33800 | 2.70904 | 32920 ft | 447 kts | 239° |
| 2026-05-06 16:15 | 49.30807 | 2.62493 | 32927 ft | 448 kts | 240° |
| 2026-05-06 16:15 | 49.27970 | 2.54292 | 32931 ft | 448 kts | 241° |
| 2026-05-06 16:16 | 49.25024 | 2.45854 | 32931 ft | 449 kts | 241° |
| 2026-05-06 16:16 | 49.22036 | 2.37442 | 32935 ft | 449 kts | 240° |
| 2026-05-06 16:17 | 49.19036 | 2.29057 | 32952 ft | 449 kts | 240° |
| 2026-05-06 16:17 | 49.15994 | 2.20745 | 32957 ft | 450 kts | 239° |
| 2026-05-06 16:18 | 49.12895 | 2.12423 | 32956 ft | 450 kts | 240° |
| 2026-05-06 16:18 | 49.09797 | 2.04114 | 32952 ft | 450 kts | 242° |
| 2026-05-06 16:19 | 49.07157 | 1.95469 | 32951 ft | 451 kts | 245° |
| 2026-05-06 16:19 | 49.04991 | 1.88236 | 32951 ft | 451 kts | 245° |
| 2026-05-06 16:20 | 49.02374 | 1.79563 | 32953 ft | 452 kts | 244° |
| 2026-05-06 16:20 | 48.99727 | 1.70827 | 32943 ft | 452 kts | 245° |
| 2026-05-06 16:21 | 48.97108 | 1.62194 | 32932 ft | 452 kts | 245° |
| 2026-05-06 16:21 | 48.94452 | 1.53486 | 32941 ft | 453 kts | 244° |
| 2026-05-06 16:22 | 48.91782 | 1.44778 | 32936 ft | 454 kts | 244° |
| 2026-05-06 16:22 | 48.89108 | 1.36067 | 32944 ft | 455 kts | 245° |
| 2026-05-06 16:23 | 48.86445 | 1.27394 | 32944 ft | 455 kts | 244° |
| 2026-05-06 16:23 | 48.83736 | 1.18665 | 32946 ft | 456 kts | 244° |
| 2026-05-06 16:24 | 48.81026 | 1.09943 | 32948 ft | 456 kts | 244° |
| 2026-05-06 16:24 | 48.78324 | 1.01242 | 32949 ft | 456 kts | 244° |
| 2026-05-06 16:25 | 48.75615 | 0.92584 | 32950 ft | 456 kts | 244° |
| 2026-05-06 16:25 | 48.72569 | 0.84199 | 32964 ft | 456 kts | 238° |
| 2026-05-06 16:26 | 48.69245 | 0.76002 | 32960 ft | 456 kts | 238° |
| 2026-05-06 16:26 | 48.65918 | 0.67794 | 32963 ft | 456 kts | 238° |
| 2026-05-06 16:27 | 48.62590 | 0.59614 | 32972 ft | 456 kts | 237° |
| 2026-05-06 16:27 | 48.59268 | 0.51489 | 32970 ft | 456 kts | 237° |
| 2026-05-06 16:28 | 48.55936 | 0.43332 | 32969 ft | 456 kts | 237° |
| 2026-05-06 16:28 | 48.52617 | 0.35237 | 32971 ft | 455 kts | 237° |
| 2026-05-06 16:29 | 48.49263 | 0.27106 | 32973 ft | 455 kts | 237° |
| 2026-05-06 16:29 | 48.45910 | 0.18990 | 32980 ft | 456 kts | 237° |
| 2026-05-06 16:30 | 48.43112 | 0.12242 | 32985 ft | 456 kts | 237° |
| 2026-05-06 16:30 | 48.39193 | 0.02827 | 32992 ft | 455 kts | 237° |
| 2026-05-06 16:31 | 48.35803 | -0.05231 | 32996 ft | 455 kts | 236° |
| 2026-05-06 16:31 | 48.32160 | -0.12934 | 32991 ft | 455 kts | 232° |
| 2026-05-06 16:32 | 48.28303 | -0.20449 | 32987 ft | 454 kts | 231° |
| 2026-05-06 16:32 | 48.24454 | -0.27980 | 32987 ft | 454 kts | 232° |
| 2026-05-06 16:33 | 48.20614 | -0.35518 | 32983 ft | 454 kts | 232° |
| 2026-05-06 16:34 | 48.14858 | -0.46762 | 32987 ft | 454 kts | 231° |
| 2026-05-06 16:34 | 48.11013 | -0.54232 | 32987 ft | 454 kts | 231° |
| 2026-05-06 16:35 | 48.07146 | -0.61733 | 32981 ft | 454 kts | 231° |
| 2026-05-06 16:35 | 48.03281 | -0.69234 | 32983 ft | 454 kts | 231° |
| 2026-05-06 16:36 | 47.99440 | -0.76663 | 32986 ft | 455 kts | 231° |
| 2026-05-06 16:36 | 47.95557 | -0.84148 | 32987 ft | 455 kts | 231° |
| 2026-05-06 16:37 | 47.91677 | -0.91603 | 32990 ft | 455 kts | 231° |
| 2026-05-06 16:37 | 47.87784 | -0.99060 | 32990 ft | 455 kts | 231° |
| 2026-05-06 16:38 | 47.83914 | -1.06454 | 32989 ft | 455 kts | 231° |
| 2026-05-06 16:38 | 47.80009 | -1.13879 | 32990 ft | 455 kts | 231° |
| 2026-05-06 16:39 | 47.76083 | -1.21324 | 32985 ft | 455 kts | 231° |
| 2026-05-06 16:39 | 47.72195 | -1.28703 | 32984 ft | 456 kts | 231° |
| 2026-05-06 16:40 | 47.68276 | -1.36125 | 32982 ft | 456 kts | 231° |
| 2026-05-06 16:40 | 47.64346 | -1.43528 | 32986 ft | 456 kts | 231° |
| 2026-05-06 16:41 | 47.60427 | -1.50875 | 32976 ft | 456 kts | 231° |
| 2026-05-06 16:41 | 47.56342 | -1.58059 | 32974 ft | 455 kts | 227° |
| 2026-05-06 16:42 | 47.52060 | -1.64968 | 32977 ft | 455 kts | 226° |
| 2026-05-06 16:42 | 47.47773 | -1.71809 | 32977 ft | 455 kts | 226° |
| 2026-05-06 16:43 | 47.43503 | -1.78754 | 32980 ft | 456 kts | 227° |
| 2026-05-06 16:43 | 47.39281 | -1.85685 | 32979 ft | 456 kts | 227° |
| 2026-05-06 16:44 | 47.34899 | -1.92446 | 32983 ft | 454 kts | 218° |
| 2026-05-06 16:44 | 47.29666 | -1.97577 | 32980 ft | 452 kts | 210° |
| 2026-05-06 16:45 | 47.24272 | -2.02391 | 32974 ft | 452 kts | 210° |
| 2026-05-06 16:45 | 47.18887 | -2.07202 | 32972 ft | 453 kts | 210° |
| 2026-05-06 16:46 | 47.13516 | -2.11982 | 32973 ft | 454 kts | 210° |
| 2026-05-06 16:46 | 47.08093 | -2.16792 | 32976 ft | 454 kts | 210° |
| 2026-05-06 16:47 | 47.02714 | -2.21561 | 32975 ft | 454 kts | 210° |
| 2026-05-06 16:47 | 46.97293 | -2.26364 | 32975 ft | 455 kts | 210° |
| 2026-05-06 16:48 | 46.91864 | -2.31157 | 32980 ft | 455 kts | 210° |
| 2026-05-06 16:48 | 46.86767 | -2.36576 | 32978 ft | 457 kts | 224° |
| 2026-05-06 16:49 | 46.82954 | -2.44020 | 32976 ft | 459 kts | 240° |
| 2026-05-06 16:49 | 46.79780 | -2.52138 | 32981 ft | 460 kts | 239° |
| 2026-05-06 16:50 | 46.76599 | -2.60164 | 32984 ft | 460 kts | 239° |
| 2026-05-06 16:50 | 46.73372 | -2.68249 | 32983 ft | 461 kts | 239° |
| 2026-05-06 16:51 | 46.70145 | -2.76349 | 32990 ft | 461 kts | 239° |
| 2026-05-06 16:51 | 46.66921 | -2.84440 | 32991 ft | 461 kts | 239° |
| 2026-05-06 16:52 | 46.63707 | -2.92469 | 32994 ft | 462 kts | 239° |
| 2026-05-06 16:52 | 46.60462 | -3.00548 | 32997 ft | 462 kts | 239° |
| 2026-05-06 16:53 | 46.57133 | -3.08572 | 33002 ft | 462 kts | 233° |
| 2026-05-06 16:53 | 46.52895 | -3.15480 | 33005 ft | 461 kts | 225° |
| 2026-05-06 16:54 | 46.48417 | -3.22216 | 33007 ft | 461 kts | 225° |
| 2026-05-06 16:54 | 46.43956 | -3.28911 | 33004 ft | 461 kts | 225° |
| 2026-05-06 16:55 | 46.39511 | -3.35573 | 33006 ft | 462 kts | 225° |
| 2026-05-06 16:55 | 46.35044 | -3.42275 | 33007 ft | 463 kts | 225° |
| 2026-05-06 16:56 | 46.30553 | -3.48978 | 33008 ft | 463 kts | 225° |
| 2026-05-06 16:56 | 46.26055 | -3.55661 | 33002 ft | 463 kts | 225° |
| 2026-05-06 16:57 | 46.21578 | -3.62302 | 33007 ft | 464 kts | 225° |
| 2026-05-06 16:57 | 46.17084 | -3.68946 | 33007 ft | 464 kts | 225° |
| 2026-05-06 16:58 | 46.12554 | -3.75641 | 33012 ft | 464 kts | 225° |
| 2026-05-06 16:58 | 46.08031 | -3.82311 | 33016 ft | 464 kts | 225° |
| 2026-05-06 16:59 | 46.03540 | -3.88917 | 33020 ft | 465 kts | 224° |
| 2026-05-06 16:59 | 45.98989 | -3.95577 | 33021 ft | 465 kts | 225° |
| 2026-05-06 17:00 | 45.94475 | -4.02185 | 33021 ft | 465 kts | 225° |
| 2026-05-06 17:00 | 45.89937 | -4.08815 | 33016 ft | 465 kts | 225° |
| 2026-05-06 17:01 | 45.85394 | -4.15418 | 33013 ft | 465 kts | 225° |
| 2026-05-06 17:01 | 45.80848 | -4.22008 | 33013 ft | 464 kts | 225° |
| 2026-05-06 17:02 | 45.76327 | -4.28549 | 33008 ft | 464 kts | 225° |
| 2026-05-06 17:02 | 45.71776 | -4.35117 | 33022 ft | 465 kts | 225° |
| 2026-05-06 17:03 | 45.67208 | -4.41706 | 33024 ft | 465 kts | 225° |
| 2026-05-06 17:03 | 45.62670 | -4.48232 | 33032 ft | 465 kts | 225° |
| 2026-05-06 17:04 | 45.58088 | -4.54796 | 33030 ft | 465 kts | 225° |
| 2026-05-06 17:04 | 45.53515 | -4.61326 | 33033 ft | 464 kts | 225° |
| 2026-05-06 17:05 | 45.48977 | -4.67801 | 33036 ft | 464 kts | 225° |
| 2026-05-06 17:05 | 45.44409 | -4.74304 | 33039 ft | 463 kts | 225° |
| 2026-05-06 17:06 | 45.39844 | -4.80792 | 33036 ft | 463 kts | 225° |
| 2026-05-06 17:06 | 45.35307 | -4.87227 | 33038 ft | 462 kts | 225° |
| 2026-05-06 17:07 | 45.30742 | -4.93675 | 33035 ft | 462 kts | 225° |
| 2026-05-06 17:07 | 45.26936 | -4.99023 | 33038 ft | 461 kts | 225° |
| 2026-05-06 17:08 | 45.22383 | -5.05426 | 33039 ft | 461 kts | 225° |
| 2026-05-06 17:08 | 45.17852 | -5.11796 | 33037 ft | 460 kts | 226° |
| 2026-05-06 17:09 | 45.13298 | -5.18179 | 33038 ft | 460 kts | 226° |
| 2026-05-06 17:09 | 45.08745 | -5.24544 | 33039 ft | 459 kts | 226° |
| 2026-05-06 17:10 | 45.04194 | -5.30888 | 33037 ft | 458 kts | 226° |
| 2026-05-06 17:10 | 44.99671 | -5.37181 | 33037 ft | 458 kts | 226° |
| 2026-05-06 17:11 | 44.95108 | -5.43492 | 33040 ft | 457 kts | 225° |
| 2026-05-06 17:11 | 44.90579 | -5.49750 | 33038 ft | 457 kts | 226° |
| 2026-05-06 17:12 | 44.86045 | -5.56022 | 33037 ft | 456 kts | 226° |
| 2026-05-06 17:12 | 44.81501 | -5.62283 | 33031 ft | 455 kts | 226° |
| 2026-05-06 17:13 | 44.76985 | -5.68485 | 33033 ft | 455 kts | 226° |
| 2026-05-06 17:13 | 44.72454 | -5.74706 | 33034 ft | 454 kts | 226° |
| 2026-05-06 17:14 | 44.67935 | -5.80880 | 33035 ft | 454 kts | 226° |
| 2026-05-06 17:14 | 44.63314 | -5.86929 | 33033 ft | 454 kts | 223° |
| 2026-05-06 17:15 | 44.58473 | -5.92607 | 33031 ft | 454 kts | 220° |
| 2026-05-06 17:15 | 44.53551 | -5.98199 | 33030 ft | 453 kts | 221° |
| 2026-05-06 17:16 | 44.48706 | -6.03802 | 33028 ft | 453 kts | 221° |
| 2026-05-06 17:16 | 44.43872 | -6.09472 | 33027 ft | 453 kts | 222° |
| 2026-05-06 17:17 | 44.39027 | -6.15152 | 33028 ft | 453 kts | 222° |
| 2026-05-06 17:17 | 44.34199 | -6.20787 | 33025 ft | 452 kts | 222° |
| 2026-05-06 17:18 | 44.29389 | -6.26377 | 33028 ft | 452 kts | 222° |
| 2026-05-06 17:18 | 44.24536 | -6.31979 | 33023 ft | 452 kts | 221° |
| 2026-05-06 17:19 | 44.19692 | -6.37566 | 33025 ft | 451 kts | 222° |
| 2026-05-06 17:19 | 44.14886 | -6.43111 | 33030 ft | 451 kts | 222° |
| 2026-05-06 17:20 | 44.10054 | -6.48675 | 33032 ft | 451 kts | 222° |
| 2026-05-06 17:20 | 44.05217 | -6.54236 | 33034 ft | 450 kts | 222° |
| 2026-05-06 17:21 | 44.00386 | -6.59774 | 33022 ft | 450 kts | 222° |
| 2026-05-06 17:21 | 43.95580 | -6.65266 | 33029 ft | 449 kts | 222° |
| 2026-05-06 17:22 | 43.90754 | -6.70770 | 33031 ft | 449 kts | 222° |
| 2026-05-06 17:22 | 43.85927 | -6.76255 | 33019 ft | 448 kts | 222° |
| 2026-05-06 17:23 | 43.81129 | -6.81710 | 33030 ft | 448 kts | 222° |
| 2026-05-06 17:23 | 43.76303 | -6.87179 | 33026 ft | 447 kts | 222° |
| 2026-05-06 17:24 | 43.71483 | -6.92626 | 33029 ft | 447 kts | 222° |
| 2026-05-06 17:24 | 43.66668 | -6.98062 | 33031 ft | 447 kts | 222° |
| 2026-05-06 17:25 | 43.61877 | -7.03470 | 33032 ft | 446 kts | 222° |
| 2026-05-06 17:25 | 43.57056 | -7.08896 | 33032 ft | 446 kts | 222° |
| 2026-05-06 17:26 | 43.52261 | -7.14264 | 33034 ft | 446 kts | 222° |
| 2026-05-06 17:26 | 43.47432 | -7.19659 | 33037 ft | 445 kts | 222° |
| 2026-05-06 17:27 | 43.42626 | -7.25033 | 33026 ft | 444 kts | 222° |
| 2026-05-06 17:27 | 43.37826 | -7.30388 | 33024 ft | 444 kts | 223° |
| 2026-05-06 17:28 | 43.33044 | -7.35704 | 33026 ft | 443 kts | 222° |
| 2026-05-06 17:28 | 43.28246 | -7.41025 | 33022 ft | 442 kts | 222° |
| 2026-05-06 17:29 | 43.23473 | -7.46303 | 33020 ft | 442 kts | 223° |
| 2026-05-06 17:29 | 43.18681 | -7.51596 | 33025 ft | 441 kts | 223° |
| 2026-05-06 17:30 | 43.13902 | -7.56863 | 33016 ft | 440 kts | 223° |
| 2026-05-06 17:30 | 43.09183 | -7.62068 | 32985 ft | 432 kts | 219° |
| 2026-05-06 17:31 | 43.04522 | -7.67186 | 32994 ft | 427 kts | 219° |
| 2026-05-06 17:31 | 42.99885 | -7.72271 | 33008 ft | 426 kts | 219° |
| 2026-05-06 17:32 | 42.95283 | -7.77294 | 32990 ft | 425 kts | 219° |
| 2026-05-06 17:32 | 42.90654 | -7.82351 | 32992 ft | 425 kts | 219° |
| 2026-05-06 17:33 | 42.86030 | -7.87400 | 33000 ft | 425 kts | 219° |
| 2026-05-06 17:33 | 42.81432 | -7.92396 | 33000 ft | 425 kts | 219° |
| 2026-05-06 17:34 | 42.76806 | -7.97417 | 33005 ft | 424 kts | 219° |
| 2026-05-06 17:34 | 42.72189 | -8.02432 | 33004 ft | 424 kts | 219° |
| 2026-05-06 17:35 | 42.67591 | -8.07400 | 32999 ft | 424 kts | 219° |
| 2026-05-06 17:35 | 42.62959 | -8.12375 | 33003 ft | 424 kts | 219° |
| 2026-05-06 17:36 | 42.56030 | -8.19824 | 33001 ft | 423 kts | 219° |
| 2026-05-06 17:36 | 42.51406 | -8.24795 | 32995 ft | 423 kts | 219° |
| 2026-05-06 17:37 | 42.46800 | -8.29735 | 32998 ft | 423 kts | 218° |
| 2026-05-06 17:37 | 42.42169 | -8.34691 | 33006 ft | 424 kts | 218° |
| 2026-05-06 17:38 | 42.37532 | -8.39640 | 33008 ft | 423 kts | 218° |
| 2026-05-06 17:38 | 42.32899 | -8.44575 | 33007 ft | 423 kts | 218° |
| 2026-05-06 17:39 | 42.28287 | -8.49483 | 32976 ft | 423 kts | 218° |
| 2026-05-06 17:39 | 42.23652 | -8.54408 | 32986 ft | 424 kts | 218° |
| 2026-05-06 17:40 | 42.19032 | -8.59299 | 32986 ft | 424 kts | 218° |
| 2026-05-06 17:40 | 42.14378 | -8.64217 | 32976 ft | 424 kts | 218° |
| 2026-05-06 17:41 | 42.09722 | -8.69125 | 32989 ft | 425 kts | 218° |
| 2026-05-06 17:41 | 42.05088 | -8.74009 | 32990 ft | 425 kts | 218° |
| 2026-05-06 17:42 | 42.00411 | -8.78918 | 32984 ft | 425 kts | 218° |
| 2026-05-06 17:42 | 41.95779 | -8.83793 | 32999 ft | 424 kts | 218° |
| 2026-05-06 17:43 | 41.91115 | -8.88682 | 32998 ft | 425 kts | 218° |
| 2026-05-06 17:43 | 41.86525 | -8.93661 | 32996 ft | 424 kts | 224° |
| 2026-05-06 17:44 | 41.82313 | -8.99144 | 33001 ft | 424 kts | 224° |
| 2026-05-06 17:44 | 41.78071 | -9.04663 | 33002 ft | 424 kts | 224° |
| 2026-05-06 17:45 | 41.73840 | -9.10150 | 32997 ft | 423 kts | 224° |
| 2026-05-06 17:45 | 41.69599 | -9.15629 | 33001 ft | 423 kts | 224° |
| 2026-05-06 17:46 | 41.65384 | -9.21078 | 32996 ft | 423 kts | 224° |
| 2026-05-06 17:46 | 41.61154 | -9.26544 | 33003 ft | 422 kts | 224° |
| 2026-05-06 17:47 | 41.56923 | -9.31993 | 32993 ft | 422 kts | 224° |
| 2026-05-06 17:47 | 41.52707 | -9.37404 | 33000 ft | 422 kts | 224° |
| 2026-05-06 17:48 | 41.48472 | -9.42834 | 32999 ft | 422 kts | 224° |
| 2026-05-06 17:48 | 41.44221 | -9.48278 | 32999 ft | 423 kts | 224° |
| 2026-05-06 17:49 | 41.39959 | -9.53720 | 33210 ft | 426 kts | 224° |
| 2026-05-06 17:49 | 41.37836 | -9.56422 | 33497 ft | 426 kts | 224° |
| 2026-05-06 17:49 | 41.35692 | -9.59149 | 33805 ft | 426 kts | 224° |
| 2026-05-06 17:50 | 41.33549 | -9.61871 | 34090 ft | 426 kts | 224° |
| 2026-05-06 17:50 | 41.31406 | -9.64594 | 34322 ft | 426 kts | 224° |
| 2026-05-06 17:50 | 41.29259 | -9.67322 | 34538 ft | 426 kts | 224° |
| 2026-05-06 17:50 | 41.27112 | -9.70052 | 34750 ft | 426 kts | 224° |
| 2026-05-06 17:51 | 41.24968 | -9.72775 | 34938 ft | 427 kts | 224° |
| 2026-05-06 17:51 | 41.22812 | -9.75509 | 35000 ft | 428 kts | 224° |
| 2026-05-06 17:51 | 41.18511 | -9.80947 | 34999 ft | 429 kts | 224° |
| 2026-05-06 17:52 | 41.14178 | -9.86419 | 35000 ft | 429 kts | 224° |
| 2026-05-06 17:52 | 41.09870 | -9.91861 | 35001 ft | 429 kts | 225° |
| 2026-05-06 17:53 | 41.05539 | -9.97321 | 35005 ft | 430 kts | 224° |
| 2026-05-06 17:53 | 41.01918 | -10.01866 | 35013 ft | 430 kts | 224° |
| 2026-05-06 17:54 | 40.96839 | -10.08215 | 35014 ft | 431 kts | 224° |
| 2026-05-06 17:54 | 40.93206 | -10.12744 | 35022 ft | 431 kts | 224° |
| 2026-05-06 17:55 | 40.88816 | -10.18178 | 35019 ft | 432 kts | 221° |
| 2026-05-06 17:55 | 40.83920 | -10.22818 | 35021 ft | 433 kts | 216° |
| 2026-05-06 17:56 | 40.78971 | -10.27309 | 35022 ft | 434 kts | 216° |
| 2026-05-06 17:56 | 40.73983 | -10.31844 | 35020 ft | 434 kts | 216° |
| 2026-05-06 17:57 | 40.69024 | -10.36345 | 35020 ft | 435 kts | 216° |
| 2026-05-06 17:57 | 40.64026 | -10.40859 | 35025 ft | 435 kts | 216° |
| 2026-05-06 17:58 | 40.59015 | -10.45378 | 35025 ft | 436 kts | 216° |
| 2026-05-06 17:58 | 40.54011 | -10.49874 | 35022 ft | 436 kts | 216° |
| 2026-05-06 17:59 | 40.49015 | -10.54357 | 35025 ft | 436 kts | 216° |
| 2026-05-06 17:59 | 40.43993 | -10.58872 | 35035 ft | 437 kts | 216° |
| 2026-05-06 18:00 | 40.38990 | -10.63366 | 35035 ft | 437 kts | 216° |
| 2026-05-06 18:00 | 40.33944 | -10.67873 | 35037 ft | 437 kts | 216° |
| 2026-05-06 18:01 | 40.28925 | -10.72349 | 35038 ft | 438 kts | 217° |
| 2026-05-06 18:01 | 40.23907 | -10.76816 | 35036 ft | 438 kts | 217° |
| 2026-05-06 18:02 | 40.18856 | -10.81306 | 35037 ft | 438 kts | 217° |
| 2026-05-06 18:02 | 40.13806 | -10.85790 | 35028 ft | 439 kts | 217° |
| 2026-05-06 18:03 | 40.08768 | -10.90250 | 35032 ft | 439 kts | 217° |
| 2026-05-06 18:03 | 40.03699 | -10.94728 | 35037 ft | 439 kts | 217° |
| 2026-05-06 18:04 | 39.98629 | -10.99201 | 35038 ft | 440 kts | 217° |
| 2026-05-06 18:04 | 39.93545 | -11.03685 | 35031 ft | 440 kts | 217° |
| 2026-05-06 18:05 | 39.88486 | -11.08143 | 35027 ft | 440 kts | 217° |
| 2026-05-06 18:05 | 39.83402 | -11.12610 | 35030 ft | 441 kts | 217° |
| 2026-05-06 18:06 | 39.78327 | -11.17057 | 35034 ft | 441 kts | 217° |
| 2026-05-06 18:06 | 39.73222 | -11.21513 | 35032 ft | 442 kts | 217° |
| 2026-05-06 18:07 | 39.68138 | -11.25952 | 35040 ft | 442 kts | 217° |
| 2026-05-06 18:07 | 39.63026 | -11.30417 | 35045 ft | 442 kts | 217° |
| 2026-05-06 18:08 | 39.57902 | -11.34879 | 35045 ft | 442 kts | 217° |
| 2026-05-06 18:08 | 39.52813 | -11.39301 | 35046 ft | 443 kts | 217° |
| 2026-05-06 18:09 | 39.47681 | -11.43742 | 35045 ft | 443 kts | 217° |
| 2026-05-06 18:09 | 39.42550 | -11.48176 | 35043 ft | 443 kts | 217° |
| 2026-05-06 18:10 | 39.37439 | -11.52586 | 35044 ft | 444 kts | 218° |
| 2026-05-06 18:10 | 39.32283 | -11.57032 | 35044 ft | 444 kts | 218° |
| 2026-05-06 18:11 | 39.27141 | -11.61459 | 35042 ft | 445 kts | 218° |
| 2026-05-06 18:11 | 39.22010 | -11.65868 | 35044 ft | 445 kts | 218° |
| 2026-05-06 18:12 | 39.16867 | -11.70278 | 35043 ft | 445 kts | 218° |
| 2026-05-06 18:12 | 39.11694 | -11.74700 | 35054 ft | 446 kts | 218° |
| 2026-05-06 18:13 | 39.06513 | -11.79127 | 35054 ft | 446 kts | 218° |
| 2026-05-06 18:13 | 39.01343 | -11.83539 | 35053 ft | 446 kts | 218° |
| 2026-05-06 18:14 | 38.96198 | -11.87927 | 35048 ft | 446 kts | 218° |
| 2026-05-06 18:14 | 38.91009 | -11.92342 | 35053 ft | 446 kts | 218° |
| 2026-05-06 18:15 | 38.85820 | -11.96747 | 35048 ft | 447 kts | 218° |
| 2026-05-06 18:15 | 38.80666 | -12.01104 | 35053 ft | 447 kts | 218° |
| 2026-05-06 18:16 | 38.75467 | -12.05498 | 35055 ft | 447 kts | 218° |
| 2026-05-06 18:16 | 38.70262 | -12.09890 | 35056 ft | 447 kts | 218° |
| 2026-05-06 18:17 | 38.65073 | -12.14253 | 35061 ft | 447 kts | 218° |
| 2026-05-06 18:17 | 38.59854 | -12.18650 | 35061 ft | 448 kts | 218° |
| 2026-05-06 18:18 | 38.54679 | -12.22993 | 35061 ft | 448 kts | 218° |
| 2026-05-06 18:18 | 38.49466 | -12.27362 | 35061 ft | 448 kts | 218° |
| 2026-05-06 18:19 | 38.44234 | -12.31740 | 35060 ft | 449 kts | 218° |
| 2026-05-06 18:19 | 38.39027 | -12.36079 | 35060 ft | 449 kts | 218° |
| 2026-05-06 18:20 | 38.33793 | -12.40435 | 35066 ft | 449 kts | 218° |
| 2026-05-06 18:20 | 38.28551 | -12.44807 | 35064 ft | 449 kts | 218° |
| 2026-05-06 18:21 | 38.23318 | -12.49164 | 35059 ft | 450 kts | 218° |
| 2026-05-06 18:21 | 38.18077 | -12.53510 | 35063 ft | 450 kts | 218° |
| 2026-05-06 18:22 | 38.12822 | -12.57849 | 35062 ft | 451 kts | 218° |
| 2026-05-06 18:22 | 38.07545 | -12.62206 | 35061 ft | 451 kts | 218° |
| 2026-05-06 18:23 | 38.02316 | -12.66525 | 35063 ft | 451 kts | 218° |
| 2026-05-06 18:23 | 37.97030 | -12.70876 | 35068 ft | 452 kts | 218° |
| 2026-05-06 18:24 | 37.91789 | -12.75181 | 35079 ft | 452 kts | 218° |
| 2026-05-06 18:24 | 37.86496 | -12.79529 | 35074 ft | 452 kts | 218° |
| 2026-05-06 18:25 | 37.81233 | -12.83847 | 35074 ft | 452 kts | 218° |
| 2026-05-06 18:25 | 37.75929 | -12.88181 | 35073 ft | 453 kts | 218° |
| 2026-05-06 18:26 | 37.70628 | -12.92504 | 35072 ft | 453 kts | 218° |
| 2026-05-06 18:26 | 37.65357 | -12.96817 | 35073 ft | 453 kts | 218° |
| 2026-05-06 18:27 | 37.60046 | -13.01144 | 35073 ft | 454 kts | 218° |
| 2026-05-06 18:27 | 37.54721 | -13.05449 | 35074 ft | 454 kts | 218° |
| 2026-05-06 18:28 | 37.49419 | -13.09733 | 35074 ft | 455 kts | 218° |
| 2026-05-06 18:28 | 37.44098 | -13.14049 | 35078 ft | 455 kts | 218° |
| 2026-05-06 18:29 | 37.38764 | -13.18363 | 35076 ft | 455 kts | 218° |
| 2026-05-06 18:29 | 37.33461 | -13.22642 | 35079 ft | 456 kts | 218° |
| 2026-05-06 18:30 | 37.28124 | -13.26939 | 35075 ft | 456 kts | 219° |
| 2026-05-06 18:30 | 37.22753 | -13.31246 | 35079 ft | 457 kts | 219° |
| 2026-05-06 18:31 | 37.17386 | -13.35549 | 35075 ft | 457 kts | 219° |
| 2026-05-06 18:31 | 37.12067 | -13.39818 | 35077 ft | 457 kts | 219° |
| 2026-05-06 18:32 | 37.06689 | -13.44124 | 35078 ft | 458 kts | 219° |
| 2026-05-06 18:32 | 37.01305 | -13.48422 | 35088 ft | 458 kts | 219° |
| 2026-05-06 18:33 | 36.95953 | -13.52685 | 35076 ft | 459 kts | 219° |
| 2026-05-06 18:33 | 36.90559 | -13.56974 | 35086 ft | 459 kts | 219° |
| 2026-05-06 18:34 | 36.85172 | -13.61258 | 35076 ft | 459 kts | 219° |
| 2026-05-06 18:34 | 36.79764 | -13.65543 | 35081 ft | 460 kts | 219° |
| 2026-05-06 18:35 | 36.74348 | -13.69795 | 35072 ft | 461 kts | 218° |
| 2026-05-06 18:35 | 36.68878 | -13.73985 | 35075 ft | 461 kts | 218° |
| 2026-05-06 18:36 | 36.63375 | -13.78160 | 35083 ft | 462 kts | 218° |
| 2026-05-06 18:36 | 36.57913 | -13.82312 | 35079 ft | 462 kts | 218° |
| 2026-05-06 18:37 | 36.53351 | -13.85790 | 35082 ft | 462 kts | 218° |
| 2026-05-06 18:37 | 36.46927 | -13.90676 | 35082 ft | 463 kts | 218° |
| 2026-05-06 18:38 | 36.41450 | -13.94836 | 35084 ft | 463 kts | 218° |
| 2026-05-06 18:38 | 36.35939 | -13.99005 | 35083 ft | 463 kts | 218° |
| 2026-05-06 18:39 | 36.30425 | -14.03168 | 35086 ft | 464 kts | 218° |
| 2026-05-06 18:40 | 36.22170 | -14.09407 | 35083 ft | 464 kts | 218° |
| 2026-05-06 18:40 | 36.16672 | -14.13541 | 35085 ft | 464 kts | 218° |
| 2026-05-06 18:41 | 36.11135 | -14.17703 | 35084 ft | 465 kts | 218° |
| 2026-05-06 18:41 | 36.06535 | -14.21164 | 35083 ft | 465 kts | 218° |
| 2026-05-06 18:42 | 36.01025 | -14.25310 | 35083 ft | 465 kts | 218° |
| 2026-05-06 18:42 | 35.95480 | -14.29455 | 35081 ft | 465 kts | 218° |
| 2026-05-06 18:43 | 35.89933 | -14.33598 | 35080 ft | 466 kts | 218° |
| 2026-05-06 18:43 | 35.84414 | -14.37712 | 35084 ft | 466 kts | 218° |
| 2026-05-06 18:44 | 35.78857 | -14.41846 | 35095 ft | 466 kts | 218° |
| 2026-05-06 18:44 | 35.73283 | -14.45978 | 35091 ft | 466 kts | 218° |
| 2026-05-06 18:45 | 35.67748 | -14.50091 | 35091 ft | 466 kts | 218° |
| 2026-05-06 18:45 | 35.62183 | -14.54231 | 35087 ft | 466 kts | 219° |
| 2026-05-06 18:46 | 35.56623 | -14.58361 | 35087 ft | 467 kts | 218° |
| 2026-05-06 18:46 | 35.51048 | -14.62470 | 35089 ft | 467 kts | 218° |
| 2026-05-06 18:47 | 35.45498 | -14.66541 | 35087 ft | 467 kts | 218° |
| 2026-05-06 18:47 | 35.39903 | -14.70659 | 35092 ft | 467 kts | 218° |
| 2026-05-06 18:48 | 35.34359 | -14.74745 | 35093 ft | 468 kts | 218° |
| 2026-05-06 18:48 | 35.28773 | -14.78851 | 35095 ft | 468 kts | 218° |
| 2026-05-06 18:49 | 35.23199 | -14.82926 | 35091 ft | 468 kts | 218° |
| 2026-05-06 18:49 | 35.17590 | -14.87020 | 35094 ft | 468 kts | 218° |
| 2026-05-06 18:50 | 35.12012 | -14.91099 | 35089 ft | 468 kts | 218° |
| 2026-05-06 18:50 | 35.06413 | -14.95191 | 35090 ft | 468 kts | 218° |
| 2026-05-06 18:51 | 35.00797 | -14.99274 | 35104 ft | 469 kts | 218° |
| 2026-05-06 18:51 | 34.95214 | -15.03320 | 35101 ft | 469 kts | 218° |
| 2026-05-06 18:52 | 34.89597 | -15.07403 | 35098 ft | 469 kts | 218° |
| 2026-05-06 18:52 | 34.83986 | -15.11473 | 35098 ft | 470 kts | 218° |
| 2026-05-06 18:53 | 34.78365 | -15.15540 | 35097 ft | 470 kts | 218° |
| 2026-05-06 18:53 | 34.72729 | -15.19607 | 35095 ft | 470 kts | 218° |
| 2026-05-06 18:54 | 34.67124 | -15.23655 | 35094 ft | 471 kts | 218° |
| 2026-05-06 18:54 | 34.61483 | -15.27708 | 35098 ft | 471 kts | 218° |
| 2026-05-06 18:55 | 34.55816 | -15.31778 | 35103 ft | 471 kts | 218° |
| 2026-05-06 18:55 | 34.50195 | -15.35813 | 35095 ft | 472 kts | 218° |
| 2026-05-06 18:56 | 34.44535 | -15.39869 | 35096 ft | 472 kts | 218° |
| 2026-05-06 18:56 | 34.38909 | -15.43906 | 35101 ft | 472 kts | 218° |
| 2026-05-06 18:57 | 34.33244 | -15.47952 | 35102 ft | 472 kts | 218° |
| 2026-05-06 18:57 | 34.27600 | -15.52044 | 35096 ft | 470 kts | 221° |
| 2026-05-06 18:58 | 34.22207 | -15.56469 | 35089 ft | 470 kts | 222° |
| 2026-05-06 18:58 | 34.19500 | -15.58707 | 34888 ft | 468 kts | 222° |
| 2026-05-06 18:58 | 34.16810 | -15.60936 | 34320 ft | 469 kts | 222° |
| 2026-05-06 18:58 | 34.14125 | -15.63171 | 33819 ft | 466 kts | 222° |
| 2026-05-06 18:59 | 34.11532 | -15.65466 | 33287 ft | 459 kts | 226° |
| 2026-05-06 18:59 | 34.09056 | -15.67891 | 32772 ft | 456 kts | 227° |
| 2026-05-06 18:59 | 34.06611 | -15.70315 | 32257 ft | 453 kts | 227° |
| 2026-05-06 18:59 | 34.04218 | -15.72694 | 31750 ft | 451 kts | 227° |
| 2026-05-06 19:00 | 34.01805 | -15.75096 | 31244 ft | 447 kts | 227° |
| 2026-05-06 19:00 | 33.99423 | -15.77468 | 30338 ft | 441 kts | 227° |
| 2026-05-06 19:00 | 33.97072 | -15.79814 | 29260 ft | 436 kts | 227° |
| 2026-05-06 19:00 | 33.94779 | -15.82107 | 28258 ft | 430 kts | 227° |
| 2026-05-06 19:01 | 33.92489 | -15.84403 | 27279 ft | 425 kts | 227° |
| 2026-05-06 19:01 | 33.90230 | -15.86676 | 26429 ft | 423 kts | 227° |
| 2026-05-06 19:01 | 33.87981 | -15.88951 | 26039 ft | 420 kts | 227° |
| 2026-05-06 19:01 | 33.85750 | -15.91208 | 25638 ft | 417 kts | 227° |
| 2026-05-06 19:02 | 33.83534 | -15.93449 | 25256 ft | 415 kts | 227° |
| 2026-05-06 19:02 | 33.81352 | -15.95658 | 24859 ft | 413 kts | 227° |
| 2026-05-06 19:02 | 33.79159 | -15.97876 | 24463 ft | 410 kts | 227° |
| 2026-05-06 19:02 | 33.76975 | -16.00085 | 24064 ft | 408 kts | 227° |
| 2026-05-06 19:03 | 33.74808 | -16.02279 | 23662 ft | 406 kts | 227° |
| 2026-05-06 19:03 | 33.72643 | -16.04474 | 23206 ft | 403 kts | 226° |
| 2026-05-06 19:03 | 33.70491 | -16.06561 | 22808 ft | 403 kts | 219° |
| 2026-05-06 19:03 | 33.68021 | -16.08203 | 22534 ft | 406 kts | 213° |
| 2026-05-06 19:04 | 33.65520 | -16.09770 | 22276 ft | 405 kts | 213° |
| 2026-05-06 19:04 | 33.63022 | -16.11328 | 22013 ft | 403 kts | 213° |
| 2026-05-06 19:04 | 33.60540 | -16.12872 | 21750 ft | 400 kts | 212° |
| 2026-05-06 19:04 | 33.58069 | -16.14410 | 21493 ft | 398 kts | 212° |
| 2026-05-06 19:05 | 33.55646 | -16.15915 | 21225 ft | 391 kts | 212° |
| 2026-05-06 19:05 | 33.53253 | -16.17392 | 20771 ft | 374 kts | 212° |
| 2026-05-06 19:05 | 33.51020 | -16.18766 | 20347 ft | 358 kts | 212° |
| 2026-05-06 19:05 | 33.48814 | -16.20128 | 19937 ft | 355 kts | 212° |
| 2026-05-06 19:06 | 33.46627 | -16.21486 | 19509 ft | 354 kts | 212° |
| 2026-05-06 19:06 | 33.44450 | -16.22837 | 19078 ft | 351 kts | 212° |
| 2026-05-06 19:06 | 33.42291 | -16.24174 | 18663 ft | 347 kts | 212° |
| 2026-05-06 19:06 | 33.40160 | -16.25494 | 18223 ft | 343 kts | 212° |
| 2026-05-06 19:07 | 33.38044 | -16.26806 | 17789 ft | 340 kts | 212° |
| 2026-05-06 19:07 | 33.35948 | -16.28106 | 17372 ft | 338 kts | 212° |
| 2026-05-06 19:07 | 33.33863 | -16.29399 | 16959 ft | 335 kts | 212° |
| 2026-05-06 19:07 | 33.31826 | -16.30662 | 16557 ft | 332 kts | 211° |
| 2026-05-06 19:08 | 33.29776 | -16.31929 | 16133 ft | 330 kts | 211° |
| 2026-05-06 19:08 | 33.27738 | -16.33182 | 15753 ft | 328 kts | 211° |
| 2026-05-06 19:08 | 33.25707 | -16.34427 | 15353 ft | 325 kts | 211° |
| 2026-05-06 19:08 | 33.23699 | -16.35661 | 14947 ft | 323 kts | 211° |
| 2026-05-06 19:09 | 33.21734 | -16.36868 | 14564 ft | 320 kts | 211° |
| 2026-05-06 19:09 | 33.19757 | -16.38085 | 14170 ft | 318 kts | 211° |
| 2026-05-06 19:09 | 33.17787 | -16.39298 | 13766 ft | 316 kts | 211° |
| 2026-05-06 19:09 | 33.15845 | -16.40494 | 13367 ft | 313 kts | 211° |
| 2026-05-06 19:10 | 33.13908 | -16.41685 | 12973 ft | 311 kts | 211° |
| 2026-05-06 19:10 | 33.12007 | -16.42851 | 12595 ft | 310 kts | 210° |
| 2026-05-06 19:10 | 33.10069 | -16.44039 | 12212 ft | 308 kts | 210° |
| 2026-05-06 19:10 | 33.08173 | -16.45203 | 11836 ft | 306 kts | 210° |
| 2026-05-06 19:11 | 33.06311 | -16.46348 | 11469 ft | 304 kts | 210° |
| 2026-05-06 19:11 | 33.04441 | -16.47497 | 11099 ft | 302 kts | 210° |
| 2026-05-06 19:11 | 33.02573 | -16.48643 | 10726 ft | 300 kts | 210° |
| 2026-05-06 19:11 | 33.00717 | -16.49777 | 10364 ft | 298 kts | 210° |
| 2026-05-06 19:12 | 32.98864 | -16.50908 | 10246 ft | 300 kts | 210° |
| 2026-05-06 19:12 | 32.96999 | -16.52049 | 10120 ft | 300 kts | 210° |
| 2026-05-06 19:12 | 32.95134 | -16.53190 | 9629 ft | 302 kts | 210° |
| 2026-05-06 19:12 | 32.93296 | -16.54313 | 8978 ft | 295 kts | 210° |
| 2026-05-06 19:13 | 32.91479 | -16.55422 | 8454 ft | 293 kts | 210° |
| 2026-05-06 19:13 | 32.89661 | -16.56529 | 7904 ft | 289 kts | 210° |
| 2026-05-06 19:13 | 32.87936 | -16.57578 | 7528 ft | 274 kts | 209° |
| 2026-05-06 19:13 | 32.86278 | -16.58585 | 7387 ft | 265 kts | 210° |
| 2026-05-06 19:14 | 32.84757 | -16.59803 | 7265 ft | 263 kts | 225° |
| 2026-05-06 19:14 | 32.83405 | -16.61267 | 7080 ft | 262 kts | 225° |
| 2026-05-06 19:14 | 32.81999 | -16.62648 | 6648 ft | 261 kts | 216° |
| 2026-05-06 19:14 | 32.80402 | -16.63631 | 6191 ft | 262 kts | 202° |
| 2026-05-06 19:15 | 32.78685 | -16.64323 | 5756 ft | 261 kts | 200° |
| 2026-05-06 19:15 | 32.76962 | -16.65015 | 5342 ft | 259 kts | 200° |
| 2026-05-06 19:15 | 32.75261 | -16.65700 | 4935 ft | 257 kts | 200° |
| 2026-05-06 19:15 | 32.73579 | -16.66381 | 4376 ft | 253 kts | 200° |
| 2026-05-06 19:16 | 32.71944 | -16.67046 | 3922 ft | 245 kts | 200° |
| 2026-05-06 19:16 | 32.70343 | -16.67697 | 3379 ft | 242 kts | 200° |
| 2026-05-06 19:16 | 32.68783 | -16.68326 | 3279 ft | 228 kts | 199° |
| 2026-05-06 19:16 | 32.67208 | -16.68961 | 3083 ft | 243 kts | 200° |
| 2026-05-06 19:17 | 32.65641 | -16.69597 | 2982 ft | 241 kts | 200° |
| 2026-05-06 19:17 | 32.64056 | -16.70247 | 2996 ft | 241 kts | 202° |
| 2026-05-06 19:17 | 32.62635 | -16.71224 | 2996 ft | 227 kts | 223° |
| 2026-05-06 19:17 | 32.61640 | -16.72557 | 2993 ft | 205 kts | 241° |
| 2026-05-06 19:18 | 32.61058 | -16.74048 | 3035 ft | 194 kts | 257° |
| 2026-05-06 19:18 | 32.60846 | -16.75603 | 3007 ft | 188 kts | 272° |
| 2026-05-06 19:18 | 32.60979 | -16.77133 | 2827 ft | 186 kts | 286° |
| 2026-05-06 19:18 | 32.61438 | -16.78561 | 2355 ft | 185 kts | 301° |
| 2026-05-06 19:19 | 32.62204 | -16.79792 | 1823 ft | 186 kts | 316° |
| 2026-05-06 19:19 | 32.63187 | -16.80678 | 1473 ft | 172 kts | 335° |
| 2026-05-06 19:19 | 32.64288 | -16.80898 | 1379 ft | 152 kts | 4° |
| 2026-05-06 19:19 | 32.65302 | -16.80788 | 1193 ft | 145 kts | 7° |
| 2026-05-06 19:20 | 32.66266 | -16.80496 | 873 ft | 144 kts | 19° |
| 2026-05-06 19:20 | 32.67151 | -16.79993 | 622 ft | 141 kts | 25° |
| 2026-05-06 19:20 | 32.67982 | -16.79382 | 488 ft | 140 kts | 32° |
| 2026-05-06 19:20 | 32.68752 | -16.78666 | 292 ft | 141 kts | 39° |
| 2026-05-06 19:21 | 32.69405 | -16.77882 | 199 ft | 118 kts | 37° |
| 2026-05-06 19:21 | 32.69896 | -16.77330 | 206 ft | 72 kts | 43° |
| 2026-05-06 19:21 | 32.70080 | -16.77116 | 213 ft | 31 kts | 45° |
| 2026-05-06 19:21 | 32.70240 | -16.76921 | 210 ft | 33 kts | 45° |
| 2026-05-06 19:22 | 32.70344 | -16.76833 | 215 ft | 13 kts | 11° |
| 2026-05-06 19:22 | 32.70401 | -16.76775 | 209 ft | 10 kts | 104° |
| 2026-05-06 19:22 | 32.70360 | -16.76777 | 213 ft | 7 kts | 225° |
| 2026-05-06 19:22 | 32.70312 | -16.76835 | 209 ft | 13 kts | 225° |
| 2026-05-06 19:23 | 32.70235 | -16.76925 | 209 ft | 18 kts | 224° |
| 2026-05-06 19:23 | 32.70136 | -16.77042 | 216 ft | 22 kts | 224° |
| 2026-05-06 19:23 | 32.70052 | -16.77136 | 211 ft | 13 kts | 223° |
| 2026-05-06 19:23 | 32.69957 | -16.77180 | 212 ft | 17 kts | 179° |
| 2026-05-06 19:24 | 32.69861 | -16.77178 | 213 ft | 13 kts | 187° |
| 2026-05-06 19:24 | 32.69777 | -16.77254 | 205 ft | 16 kts | 226° |
| 2026-05-06 19:24 | 32.69714 | -16.77332 | 201 ft | 15 kts | 226° |
| 2026-05-06 19:24 | 32.69631 | -16.77434 | 202 ft | 18 kts | 226° |
| 2026-05-06 19:25 | 32.69539 | -16.77545 | 196 ft | 19 kts | 226° |
| 2026-05-06 19:25 | 32.69467 | -16.77637 | 199 ft | 13 kts | 227° |
| 2026-05-06 19:25 | 32.69420 | -16.77696 | 197 ft | 6 kts | 226° |
| 2026-05-06 19:25 | 32.69388 | -16.77694 | 193 ft | 5 kts | 144° |
| 2026-05-06 19:26 | 32.69369 | -16.77672 | 204 ft | 2 kts | 136° |
| 2026-05-06 19:26 | 32.69365 | -16.77668 | 202 ft | 2 kts | 136° |
| 2026-05-06 19:26 | 32.69361 | -16.77664 | 200 ft | 0 kts | 137° |
| 2026-05-06 19:26 | 32.69360 | -16.77662 | 199 ft | 0 kts | 137° |
| 2026-05-06 20:03 | 32.69360 | -16.77663 | 192 ft | 0 kts | 137° |